createdAt,value
2018-05-07T00:02:25.412Z,17.00
2018-05-07T00:04:51.995Z,17.00
2018-05-07T00:07:18.300Z,16.90
2018-05-07T00:09:44.602Z,17.10
2018-05-07T00:12:11.659Z,16.70
2018-05-07T00:14:37.977Z,16.70
2018-05-07T00:17:04.356Z,16.70
2018-05-07T00:19:30.701Z,17.10
2018-05-07T00:21:56.999Z,16.60
2018-05-07T00:24:23.321Z,16.60
2018-05-07T00:26:49.702Z,16.50
2018-05-07T00:29:16.006Z,16.40
2018-05-07T00:31:42.301Z,16.30
2018-05-07T00:34:08.631Z,16.50
2018-05-07T00:36:34.930Z,16.20
2018-05-07T00:39:01.211Z,16.20
2018-05-07T00:41:27.503Z,16.40
2018-05-07T00:43:53.793Z,16.10
2018-05-07T00:46:20.113Z,16.10
2018-05-07T00:48:46.404Z,16.40
2018-05-07T00:51:12.699Z,16.00
2018-05-07T00:53:39.067Z,15.90
2018-05-07T00:56:05.370Z,15.90
2018-05-07T00:58:31.670Z,15.90
2018-05-07T01:00:57.998Z,16.00
2018-05-07T01:03:24.330Z,15.90
2018-05-07T01:05:51.483Z,15.60
2018-05-07T01:08:18.562Z,15.60
2018-05-07T01:10:46.795Z,15.50
2018-05-07T01:13:13.368Z,15.50
2018-05-07T01:15:39.658Z,15.50
2018-05-07T01:18:06.210Z,15.40
2018-05-07T01:20:33.250Z,15.40
2018-05-07T01:23:00.362Z,15.40
2018-05-07T01:25:26.641Z,15.40
2018-05-07T01:27:52.946Z,15.40
2018-05-07T01:30:19.245Z,15.40
2018-05-07T01:32:46.019Z,15.80
2018-05-07T01:35:12.401Z,15.10
2018-05-07T01:37:38.701Z,15.20
2018-05-07T01:40:05.882Z,15.10
2018-05-07T01:42:32.196Z,15.10
2018-05-07T01:44:59.223Z,15.00
2018-05-07T01:47:25.541Z,15.10
2018-05-07T01:49:51.815Z,14.90
2018-05-07T01:52:18.103Z,15.00
2018-05-07T01:54:44.388Z,15.10
2018-05-07T01:57:12.789Z,14.80
2018-05-07T01:59:38.902Z,14.80
2018-05-07T02:02:05.956Z,14.60
2018-05-07T02:04:32.239Z,14.40
2018-05-07T02:06:58.530Z,14.60
2018-05-07T02:09:24.831Z,14.60
2018-05-07T02:11:51.179Z,14.60
2018-05-07T02:14:17.507Z,14.50
2018-05-07T02:16:43.805Z,14.50
2018-05-07T02:19:10.083Z,14.80
2018-05-07T02:21:36.378Z,14.40
2018-05-07T02:24:02.675Z,14.40
2018-05-07T02:26:28.970Z,14.40
2018-05-07T02:28:55.271Z,14.60
2018-05-07T02:31:21.764Z,14.30
2018-05-07T02:33:48.125Z,14.30
2018-05-07T02:36:15.166Z,14.20
2018-05-07T02:38:41.986Z,14.10
2018-05-07T02:41:08.083Z,14.10
2018-05-07T02:43:34.912Z,14.10
2018-05-07T02:46:01.031Z,14.00
2018-05-07T02:48:27.119Z,13.90
2018-05-07T02:50:54.148Z,14.00
2018-05-07T02:53:23.222Z,14.00
2018-05-07T02:55:49.632Z,13.90
2018-05-07T02:58:15.966Z,13.90
2018-05-07T03:00:42.275Z,13.90
2018-05-07T03:03:09.302Z,13.80
2018-05-07T03:05:35.640Z,13.80
2018-05-07T03:08:01.952Z,13.70
2018-05-07T03:10:28.051Z,13.70
2018-05-07T03:12:54.389Z,13.70
2018-05-07T03:15:20.490Z,13.60
2018-05-07T03:17:46.776Z,13.30
2018-05-07T03:20:13.789Z,13.60
2018-05-07T03:22:40.616Z,13.60
2018-05-07T03:25:06.732Z,13.60
2018-05-07T03:27:32.842Z,13.60
2018-05-07T03:29:59.685Z,13.50
2018-05-07T03:32:25.772Z,13.50
2018-05-07T03:34:52.051Z,13.20
2018-05-07T03:37:18.367Z,13.70
2018-05-07T03:39:44.464Z,13.40
2018-05-07T03:42:10.792Z,13.50
2018-05-07T03:44:37.138Z,13.30
2018-05-07T03:47:04.391Z,13.30
2018-05-07T03:49:31.437Z,13.20
2018-05-07T03:51:57.732Z,13.20
2018-05-07T03:54:24.069Z,13.60
2018-05-07T03:56:50.362Z,13.20
2018-05-07T03:59:16.649Z,13.20
2018-05-07T04:01:43.694Z,13.10
2018-05-07T04:04:09.998Z,13.50
2018-05-07T04:06:37.102Z,12.70
2018-05-07T04:09:04.148Z,13.20
2018-05-07T04:11:30.279Z,13.30
2018-05-07T04:13:56.370Z,13.10
2018-05-07T04:16:35.144Z,13.10
2018-05-07T04:19:13.762Z,13.10
2018-05-07T04:21:40.064Z,13.10
2018-05-07T04:24:07.143Z,13.00
2018-05-07T04:26:33.451Z,13.10
2018-05-07T04:28:59.782Z,13.00
2018-05-07T04:31:26.097Z,13.00
2018-05-07T04:33:52.695Z,13.00
2018-05-07T04:36:19.004Z,13.00
2018-05-07T04:38:45.334Z,13.10
2018-05-07T04:41:11.669Z,12.80
2018-05-07T04:43:38.723Z,13.00
2018-05-07T04:46:05.808Z,13.00
2018-05-07T04:48:35.663Z,13.00
2018-05-07T04:51:01.992Z,13.00
2018-05-07T04:53:28.314Z,13.10
2018-05-07T04:55:57.536Z,13.10
2018-05-07T04:58:23.858Z,13.10
2018-05-07T05:00:50.895Z,13.00
2018-05-07T05:03:17.956Z,13.10
2018-05-07T05:05:45.005Z,13.10
2018-05-07T05:08:12.071Z,13.10
2018-05-07T05:10:38.453Z,13.10
2018-05-07T05:13:04.956Z,13.10
2018-05-07T05:15:31.239Z,13.10
2018-05-07T05:17:57.572Z,13.20
2018-05-07T05:20:24.631Z,13.30
2018-05-07T05:22:51.562Z,13.20
2018-05-07T05:25:17.867Z,13.40
2018-05-07T05:27:44.158Z,13.40
2018-05-07T05:30:10.440Z,13.40
2018-05-07T05:32:36.872Z,13.50
2018-05-07T05:35:03.168Z,13.60
2018-05-07T05:37:29.693Z,13.60
2018-05-07T05:39:56.008Z,13.80
2018-05-07T05:42:22.311Z,13.90
2018-05-07T05:44:48.615Z,14.40
2018-05-07T05:47:14.949Z,14.20
2018-05-07T05:49:41.259Z,14.20
2018-05-07T05:52:07.534Z,14.30
2018-05-07T05:54:33.844Z,14.40
2018-05-07T05:57:00.159Z,14.50
2018-05-07T05:59:27.187Z,14.70
2018-05-07T06:01:54.582Z,14.90
2018-05-07T06:04:21.706Z,15.00
2018-05-07T06:06:48.030Z,15.00
2018-05-07T06:09:16.216Z,15.20
2018-05-07T06:11:42.524Z,15.20
2018-05-07T06:14:09.559Z,15.50
2018-05-07T06:16:35.865Z,15.40
2018-05-07T06:19:02.158Z,15.60
2018-05-07T06:21:28.574Z,16.00
2018-05-07T06:23:54.918Z,15.90
2018-05-07T06:26:21.231Z,16.10
2018-05-07T06:28:47.553Z,16.20
2018-05-07T06:31:13.840Z,16.30
2018-05-07T06:33:40.125Z,16.40
2018-05-07T06:36:06.420Z,16.50
2018-05-07T06:38:33.522Z,16.70
2018-05-07T06:40:59.836Z,16.70
2018-05-07T06:43:26.196Z,16.90
2018-05-07T06:45:52.605Z,17.10
2018-05-07T06:48:19.005Z,17.20
2018-05-07T06:50:45.355Z,17.40
2018-05-07T06:53:11.749Z,17.40
2018-05-07T06:55:38.468Z,17.60
2018-05-07T06:58:04.955Z,17.70
2018-05-07T07:00:32.072Z,17.90
2018-05-07T07:02:59.865Z,18.00
2018-05-07T07:05:25.901Z,18.00
2018-05-07T07:07:51.999Z,18.10
2018-05-07T07:10:18.337Z,18.30
2018-05-07T07:12:44.433Z,18.40
2018-05-07T07:15:10.712Z,18.60
2018-05-07T07:17:37.021Z,18.80
2018-05-07T07:20:03.371Z,19.00
2018-05-07T07:22:30.206Z,19.50
2018-05-07T07:24:56.489Z,19.50
2018-05-07T07:27:23.534Z,20.00
2018-05-07T07:29:50.567Z,20.50
2018-05-07T07:32:16.862Z,20.50
2018-05-07T07:34:43.150Z,21.40
2018-05-07T07:37:09.453Z,22.80
2018-05-07T07:39:36.522Z,26.50
2018-05-07T07:42:02.848Z,26.40
2018-05-07T07:44:29.158Z,28.60
2018-05-07T07:46:57.074Z,30.50
2018-05-07T07:49:23.354Z,32.30
2018-05-07T07:51:49.644Z,34.00
2018-05-07T07:54:15.933Z,35.40
2018-05-07T07:56:42.195Z,36.50
2018-05-07T07:59:08.460Z,37.30
2018-05-07T08:01:34.763Z,37.60
2018-05-07T08:04:01.054Z,38.10
2018-05-07T08:06:30.678Z,38.90
2018-05-07T08:08:56.972Z,39.50
2018-05-07T08:11:23.330Z,40.10
2018-05-07T08:13:49.620Z,40.50
2018-05-07T08:16:15.934Z,40.90
2018-05-07T08:18:42.210Z,41.00
2018-05-07T08:21:08.534Z,41.20
2018-05-07T08:23:34.842Z,41.00
2018-05-07T08:26:03.001Z,40.10
2018-05-07T08:28:29.347Z,38.90
2018-05-07T08:30:55.682Z,37.20
2018-05-07T08:33:22.714Z,33.50
2018-05-07T08:35:49.003Z,33.40
2018-05-07T08:38:15.286Z,31.90
2018-05-07T08:40:41.586Z,30.50
2018-05-07T08:43:12.646Z,29.20
2018-05-07T08:45:39.707Z,28.30
2018-05-07T08:48:06.010Z,27.50
2018-05-07T08:50:32.307Z,26.80
2018-05-07T08:52:58.673Z,26.40
2018-05-07T08:55:24.931Z,26.00
2018-05-07T08:57:54.639Z,25.70
2018-05-07T09:00:20.919Z,25.20
2018-05-07T09:02:47.214Z,25.10
2018-05-07T09:05:13.522Z,25.00
2018-05-07T09:07:39.819Z,24.60
2018-05-07T09:10:06.846Z,24.40
2018-05-07T09:12:33.170Z,24.40
2018-05-07T09:15:03.685Z,24.30
2018-05-07T09:17:30.547Z,24.30
2018-05-07T09:19:56.659Z,24.70
2018-05-07T09:22:22.754Z,24.30
2018-05-07T09:24:49.079Z,24.30
2018-05-07T09:27:15.155Z,24.20
2018-05-07T09:29:41.432Z,24.20
2018-05-07T09:32:12.679Z,24.10
2018-05-07T09:34:38.795Z,24.20
2018-05-07T09:37:05.206Z,24.70
2018-05-07T09:39:31.234Z,24.30
2018-05-07T09:41:57.330Z,24.30
2018-05-07T09:44:23.604Z,24.30
2018-05-07T09:46:50.659Z,24.60
2018-05-07T09:49:20.018Z,24.60
2018-05-07T09:51:46.298Z,24.70
2018-05-07T09:54:13.297Z,24.80
2018-05-07T09:56:51.957Z,24.80
2018-05-07T09:59:21.938Z,24.90
2018-05-07T10:01:48.976Z,25.10
2018-05-07T10:04:15.260Z,25.10
2018-05-07T10:06:41.558Z,25.10
2018-05-07T10:09:07.815Z,25.20
2018-05-07T10:11:34.098Z,25.30
2018-05-07T10:14:00.506Z,25.60
2018-05-07T10:16:27.530Z,25.60
2018-05-07T10:18:57.462Z,25.50
2018-05-07T10:21:24.559Z,25.60
2018-05-07T10:23:50.871Z,25.60
2018-05-07T10:26:17.167Z,25.70
2018-05-07T10:28:43.474Z,25.80
2018-05-07T10:31:09.786Z,25.90
2018-05-07T10:33:36.082Z,25.80
2018-05-07T10:36:05.663Z,25.90
2018-05-07T10:38:32.875Z,25.90
2018-05-07T10:40:59.280Z,25.90
2018-05-07T10:43:25.579Z,26.00
2018-05-07T10:45:51.915Z,26.00
2018-05-07T10:48:18.215Z,26.00
2018-05-07T10:50:44.511Z,26.10
2018-05-07T10:53:10.817Z,26.30
2018-05-07T10:55:41.907Z,26.20
2018-05-07T10:58:08.013Z,26.20
2018-05-07T11:00:34.331Z,26.30
2018-05-07T11:03:00.622Z,26.30
2018-05-07T11:05:26.915Z,26.40
2018-05-07T11:07:53.218Z,26.40
2018-05-07T11:10:19.501Z,26.50
2018-05-07T11:12:49.438Z,26.40
2018-05-07T11:15:15.735Z,26.30
2018-05-07T11:17:42.043Z,26.40
2018-05-07T11:20:08.350Z,26.50
2018-05-07T11:22:35.358Z,26.70
2018-05-07T11:25:01.697Z,26.70
2018-05-07T11:27:28.027Z,26.90
2018-05-07T11:29:54.859Z,26.80
2018-05-07T11:32:22.384Z,26.80
2018-05-07T11:34:49.403Z,26.80
2018-05-07T11:37:15.470Z,27.00
2018-05-07T11:39:41.754Z,26.90
2018-05-07T11:42:08.031Z,27.00
2018-05-07T11:44:34.415Z,27.00
2018-05-07T11:47:00.607Z,27.10
2018-05-07T11:49:26.699Z,27.20
2018-05-07T11:51:57.486Z,27.20
2018-05-07T11:54:23.619Z,27.20
2018-05-07T11:56:50.639Z,27.20
2018-05-07T11:59:16.742Z,27.30
2018-05-07T12:01:43.039Z,27.40
2018-05-07T12:04:09.331Z,27.20
2018-05-07T12:06:35.603Z,27.20
2018-05-07T12:09:02.080Z,27.40
2018-05-07T12:11:30.259Z,27.20
2018-05-07T12:13:56.544Z,27.20
2018-05-07T12:16:22.883Z,27.30
2018-05-07T12:18:49.158Z,27.30
2018-05-07T12:21:15.480Z,27.20
2018-05-07T12:23:42.495Z,27.30
2018-05-07T12:26:08.817Z,27.30
2018-05-07T12:28:35.135Z,27.20
2018-05-07T12:31:04.727Z,27.30
2018-05-07T12:33:30.914Z,27.30
2018-05-07T12:36:03.083Z,27.30
2018-05-07T12:38:29.235Z,27.40
2018-05-07T12:40:55.359Z,27.50
2018-05-07T12:43:21.456Z,27.50
2018-05-07T12:45:47.547Z,27.50
2018-05-07T12:48:16.315Z,27.60
2018-05-07T12:50:42.409Z,27.50
2018-05-07T12:53:08.519Z,27.50
2018-05-07T12:55:34.636Z,27.50
2018-05-07T12:58:00.735Z,27.50
2018-05-07T13:00:26.863Z,27.60
2018-05-07T13:02:52.943Z,27.60
2018-05-07T13:05:19.764Z,27.70
2018-05-07T13:07:45.875Z,27.60
2018-05-07T13:10:13.467Z,27.60
2018-05-07T13:12:39.781Z,27.70
2018-05-07T13:15:06.089Z,27.70
2018-05-07T13:17:33.138Z,27.70
2018-05-07T13:19:59.442Z,27.60
2018-05-07T13:22:26.380Z,27.70
2018-05-07T13:24:52.702Z,27.70
2018-05-07T13:27:18.957Z,27.80
2018-05-07T13:29:48.676Z,27.80
2018-05-07T13:32:15.051Z,27.90
2018-05-07T13:34:41.347Z,27.80
2018-05-07T13:37:07.627Z,27.80
2018-05-07T13:39:33.987Z,27.80
2018-05-07T13:42:00.313Z,27.90
2018-05-07T13:44:26.726Z,27.90
2018-05-07T13:46:53.013Z,27.90
2018-05-07T13:49:23.586Z,27.90
2018-05-07T13:51:49.885Z,27.80
2018-05-07T13:54:16.225Z,27.80
2018-05-07T13:56:42.533Z,27.70
2018-05-07T13:59:08.807Z,27.70
2018-05-07T14:01:35.111Z,27.70
2018-05-07T14:04:01.364Z,27.70
2018-05-07T14:06:30.686Z,27.70
2018-05-07T14:08:56.978Z,27.80
2018-05-07T14:11:23.238Z,27.80
2018-05-07T14:13:49.582Z,27.70
2018-05-07T14:16:15.890Z,27.70
2018-05-07T14:18:42.932Z,27.70
2018-05-07T14:21:09.042Z,27.70
2018-05-07T14:23:35.368Z,27.80
2018-05-07T14:26:01.674Z,27.80
2018-05-07T14:28:31.380Z,27.90
2018-05-07T14:30:57.816Z,27.90
2018-05-07T14:33:24.206Z,27.70
2018-05-07T14:35:50.470Z,27.80
2018-05-07T14:38:16.756Z,27.90
2018-05-07T14:40:43.039Z,27.70
2018-05-07T14:43:09.304Z,27.70
2018-05-07T14:45:35.617Z,27.70
2018-05-07T14:48:02.667Z,27.50
2018-05-07T14:50:29.536Z,27.60
2018-05-07T14:52:56.383Z,27.60
2018-05-07T14:55:22.488Z,27.60
2018-05-07T14:57:48.619Z,27.60
2018-05-07T15:00:14.846Z,27.70
2018-05-07T15:02:40.960Z,27.70
2018-05-07T15:05:07.836Z,27.50
2018-05-07T15:07:34.806Z,27.50
2018-05-07T15:10:00.909Z,27.70
2018-05-07T15:12:27.506Z,27.50
2018-05-07T15:14:53.661Z,27.50
2018-05-07T15:17:19.759Z,27.40
2018-05-07T15:19:46.664Z,27.50
2018-05-07T15:22:12.782Z,27.50
2018-05-07T15:24:44.894Z,27.50
2018-05-07T15:27:11.193Z,27.50
2018-05-07T15:29:37.507Z,27.50
2018-05-07T15:32:03.830Z,27.50
2018-05-07T15:37:12.370Z,27.20
2018-05-07T15:39:38.495Z,27.20
2018-05-07T15:42:05.578Z,27.10
2018-05-07T15:44:31.719Z,27.10
2018-05-07T15:46:59.772Z,27.10
2018-05-07T15:49:32.459Z,27.00
2018-05-07T15:51:59.325Z,26.90
2018-05-07T15:54:26.175Z,27.00
2018-05-07T15:56:52.284Z,27.00
2018-05-07T15:59:18.459Z,27.00
2018-05-07T16:01:45.712Z,27.00
2018-05-07T16:04:11.799Z,27.10
2018-05-07T16:06:37.939Z,27.20
2018-05-07T16:09:04.052Z,27.20
2018-05-07T16:11:30.160Z,27.00
2018-05-07T16:13:56.245Z,26.90
2018-05-07T16:16:22.327Z,26.80
2018-05-07T16:18:48.506Z,26.80
2018-05-07T16:21:14.623Z,26.80
2018-05-07T16:23:40.737Z,26.70
2018-05-07T16:26:06.834Z,26.70
2018-05-07T16:28:37.780Z,26.70
2018-05-07T16:31:04.650Z,26.70
2018-05-07T16:33:30.631Z,26.70
2018-05-07T16:35:56.716Z,26.70
2018-05-07T16:38:22.857Z,26.50
2018-05-07T16:40:48.944Z,26.50
2018-05-07T16:43:15.023Z,26.50
2018-05-07T16:45:46.908Z,26.50
2018-05-07T16:48:12.999Z,26.40
2018-05-07T16:50:39.111Z,26.50
2018-05-07T16:53:05.495Z,26.40
2018-05-07T16:55:31.573Z,26.40
2018-05-07T16:57:57.666Z,26.20
2018-05-07T17:00:23.777Z,26.20
2018-05-07T17:02:49.897Z,26.20
2018-05-07T17:05:16.090Z,26.20
2018-05-07T17:07:42.260Z,26.30
2018-05-07T17:10:08.359Z,26.20
2018-05-07T17:12:34.566Z,26.30
2018-05-07T17:15:00.742Z,26.00
2018-05-07T17:17:26.968Z,25.80
2018-05-07T17:19:53.054Z,25.70
2018-05-07T17:22:21.376Z,25.80
2018-05-07T17:24:47.717Z,25.80
2018-05-07T17:27:14.425Z,25.90
2018-05-07T17:29:40.583Z,25.80
2018-05-07T17:32:06.698Z,25.80
2018-05-07T17:34:32.811Z,25.80
2018-05-07T17:37:00.531Z,25.70
2018-05-07T17:39:27.478Z,25.70
2018-05-07T17:41:53.709Z,25.60
2018-05-07T17:44:32.092Z,25.50
2018-05-07T17:47:10.625Z,25.60
2018-05-07T17:49:38.051Z,25.60
2018-05-07T17:52:04.747Z,25.60
2018-05-07T17:54:30.952Z,25.60
2018-05-07T17:56:56.991Z,25.40
2018-05-07T17:59:32.661Z,25.40
2018-05-07T18:02:02.297Z,25.30
2018-05-07T18:04:37.493Z,25.30
2018-05-07T18:07:13.354Z,25.20
2018-05-07T18:09:45.404Z,25.10
2018-05-07T18:12:12.231Z,25.00
2018-05-07T18:14:38.336Z,25.00
2018-05-07T18:17:04.518Z,25.00
2018-05-07T18:19:30.711Z,24.90
2018-05-07T18:21:56.953Z,24.80
2018-05-07T18:24:23.106Z,24.80
2018-05-07T18:26:49.216Z,24.70
2018-05-07T18:29:16.045Z,24.70
2018-05-07T18:31:42.173Z,24.70
2018-05-07T18:34:08.243Z,24.70
2018-05-07T18:36:34.343Z,24.70
2018-05-07T18:39:01.211Z,24.50
2018-05-07T18:41:27.300Z,24.40
2018-05-07T18:43:53.388Z,24.40
2018-05-07T18:46:19.484Z,24.20
2018-05-07T18:48:45.571Z,24.40
2018-05-07T18:51:11.696Z,24.20
2018-05-07T18:53:37.918Z,24.10
2018-05-07T18:56:04.016Z,24.10
2018-05-07T18:58:30.851Z,24.00
2018-05-07T19:00:56.953Z,24.00
2018-05-07T19:03:27.676Z,23.90
2018-05-07T19:05:54.595Z,23.90
2018-05-07T19:08:20.746Z,23.90
2018-05-07T19:10:46.867Z,23.90
2018-05-07T19:13:12.943Z,23.80
2018-05-07T19:15:39.034Z,23.60
2018-05-07T19:18:05.249Z,23.60
2018-05-07T19:20:32.680Z,23.60
2018-05-07T19:23:06.490Z,23.40
2018-05-07T19:25:33.355Z,23.40
2018-05-07T19:28:00.554Z,23.40
2018-05-07T19:30:26.630Z,23.20
2018-05-07T19:32:52.820Z,23.30
2018-05-07T19:35:19.405Z,23.30
2018-05-07T19:37:45.566Z,23.20
2018-05-07T19:40:12.449Z,23.10
2018-05-07T19:42:39.301Z,23.00
2018-05-07T19:45:05.778Z,23.10
2018-05-07T19:47:31.954Z,23.00
2018-05-07T19:49:58.221Z,23.00
2018-05-07T19:52:24.361Z,23.00
2018-05-07T19:54:51.314Z,22.80
2018-05-07T19:57:17.386Z,22.80
2018-05-07T19:59:44.271Z,22.70
2018-05-07T20:02:10.374Z,22.70
2018-05-07T20:04:36.531Z,22.60
2018-05-07T20:07:02.639Z,22.60
2018-05-07T20:09:28.762Z,22.80
2018-05-07T20:11:54.884Z,22.50
2018-05-07T20:14:21.099Z,22.30
2018-05-07T20:16:47.097Z,22.80
2018-05-07T20:19:13.214Z,22.30
2018-05-07T20:21:40.040Z,22.30
2018-05-07T20:24:06.131Z,22.30
2018-05-07T20:26:33.083Z,22.40
2018-05-07T20:29:00.026Z,22.10
2018-05-07T20:31:26.099Z,22.10
2018-05-07T20:33:52.225Z,22.10
2018-05-07T20:36:18.426Z,22.00
2018-05-07T20:38:44.688Z,21.90
2018-05-07T20:41:10.790Z,21.90
2018-05-07T20:43:36.858Z,22.30
2018-05-07T20:46:02.986Z,22.20
2018-05-07T20:48:29.100Z,21.80
2018-05-07T20:50:55.207Z,21.70
2018-05-07T20:53:22.169Z,21.50
2018-05-07T20:55:49.065Z,21.50
2018-05-07T20:58:15.232Z,21.50
2018-05-07T21:00:41.356Z,21.60
2018-05-07T21:03:07.484Z,21.40
2018-05-07T21:05:33.590Z,21.40
2018-05-07T21:08:00.475Z,21.30
2018-05-07T21:10:26.622Z,21.30
2018-05-07T21:12:52.713Z,21.30
2018-05-07T21:15:18.820Z,21.20
2018-05-07T21:17:44.911Z,21.10
2018-05-07T21:20:11.756Z,21.10
2018-05-07T21:22:38.724Z,21.00
2018-05-07T21:25:05.843Z,21.00
2018-05-07T21:27:31.990Z,21.00
2018-05-07T21:29:58.120Z,20.90
2018-05-07T21:32:24.228Z,20.90
2018-05-07T21:34:51.094Z,20.70
2018-05-07T21:37:17.202Z,20.70
2018-05-07T21:39:44.064Z,20.60
2018-05-07T21:42:10.996Z,20.50
2018-05-07T21:44:37.104Z,20.50
2018-05-07T21:47:03.199Z,20.50
2018-05-07T21:49:29.300Z,20.50
2018-05-07T21:51:55.423Z,20.40
2018-05-07T21:54:21.571Z,20.30
2018-05-07T21:56:47.706Z,20.20
2018-05-07T21:59:13.818Z,20.50
2018-05-07T22:01:40.755Z,20.10
2018-05-07T22:04:06.897Z,20.00
2018-05-07T22:06:33.859Z,19.90
2018-05-07T22:09:01.998Z,19.80
2018-05-07T22:11:28.128Z,19.80
2018-05-07T22:13:54.226Z,19.80
2018-05-07T22:16:20.303Z,20.00
2018-05-07T22:18:46.406Z,20.20
2018-05-07T22:21:13.253Z,19.60
2018-05-07T22:23:39.354Z,19.50
2018-05-07T22:26:05.671Z,19.50
2018-05-07T22:28:31.758Z,19.40
2018-05-07T22:30:57.883Z,19.30
2018-05-07T22:33:24.167Z,19.30
2018-05-07T22:35:51.036Z,19.20
2018-05-07T22:38:17.892Z,19.10
2018-05-07T22:40:44.729Z,19.10
2018-05-07T22:43:10.842Z,19.10
2018-05-07T22:45:36.935Z,19.10
2018-05-07T22:48:03.419Z,19.10
2018-05-07T22:50:29.571Z,18.90
2018-05-07T22:52:55.692Z,18.90
2018-05-07T22:55:22.170Z,18.80
2018-05-07T22:57:48.303Z,18.70
2018-05-07T23:00:14.457Z,18.20
2018-05-07T23:02:40.806Z,18.60
2018-05-07T23:05:06.984Z,18.60
2018-05-07T23:07:33.094Z,18.50
2018-05-07T23:09:59.219Z,18.50
2018-05-07T23:12:25.306Z,18.80
2018-05-07T23:14:51.424Z,18.50
2018-05-07T23:17:17.534Z,18.60
2018-05-07T23:19:43.682Z,18.30
2018-05-07T23:22:09.812Z,18.20
2018-05-07T23:24:36.038Z,18.20
2018-05-07T23:27:02.967Z,18.10
2018-05-07T23:29:29.811Z,18.00
2018-05-07T23:31:55.955Z,18.00
2018-05-07T23:34:22.797Z,18.00
2018-05-07T23:36:48.899Z,17.70
2018-05-07T23:39:15.083Z,17.90
2018-05-07T23:41:42.025Z,17.90
2018-05-07T23:44:08.911Z,17.80
2018-05-07T23:46:35.154Z,17.70
2018-05-07T23:49:01.389Z,17.70
2018-05-07T23:51:28.233Z,17.60
2018-05-07T23:53:55.099Z,17.60
2018-05-07T23:56:21.199Z,17.60
2018-05-07T23:58:47.303Z,17.60
